Track Таран Николай Хабаровский край

Time Latitude Longitude Accuracy (66% radius in meters) Altitude (meters) Speed (km/hour) Bearing (degrees) Battery (%) GPS flag
06:17:18 43.171422 132.075792 4 78.300003051758 0.34999999403954 23.922729492188 16 1 delete
06:06:42 43.171379 132.075813 3.5 76.099998474121 0.43999999761581 112.99438476562 20 1 delete
06:06:36 43.171319 132.075781 3.5 75 1.0299999713898 354.0234375 20 1 delete
06:06:33 43.171274 132.075766 4 74.800003051758 1.0199999809265 339.58190917969 20 1 delete
06:06:27 43.171205 132.075805 3.5 73.199996948242 1.1899999380112 346.98669433594 20 1 delete
06:06:21 43.171161 132.075871 3.5 72 0.8299999833107 344.36096191406 20 1 delete
06:06:15 43.171084 132.075884 3.5 73 0 0 20 1 delete
06:06:09 43.171033 132.075923 4 75.300003051758 1.1000000238419 332.35290527344 20 1 delete
06:06:03 43.170985 132.075950 4 76.300003051758 0.9099999666214 338.28002929688 20 1 delete
06:05:57 43.170911 132.075993 4 75.199996948242 1.2200000286102 334.7314453125 20 1 delete
06:05:51 43.170846 132.076041 4.5 75.300003051758 0.87999999523163 327.37609863281 20 1 delete
06:05:36 43.170811 132.076002 3.5 77.800003051758 0.72999995946884 335.64331054688 20 1 delete
06:03:06 43.170782 132.076052 2 71.599998474121 0 0 20 1 delete
05:59:39 43.170780 132.076056 2.5 72.199996948242 0 0 20 1 delete
05:51:18 43.170781 132.076067 2 71.699996948242 0 0 27 1 delete
05:47:57 43.170784 132.076058 3 71.599998474121 0 0 27 1 delete
05:44:36 43.170784 132.076058 2.5 71.599998474121 0 0 27 1 delete
05:41:15 43.170784 132.076058 3 71.599998474121 0 0 27 1 delete
05:37:54 43.170784 132.076058 2.5 71.599998474121 0 0 27 1 delete
05:34:33 43.170784 132.076058 2.5 71.599998474121 0 0 35 1 delete
05:32:57 43.170784 132.076058 4.5 71.5 0.0099999997764826 228.66394042969 35 1 delete
05:31:09 43.170754 132.075960 2.5 68.099998474121 0 0 35 1 delete
01:48:39 43.170694 132.076681 4.5 79 0.40999999642372 98.673706054688 82 1 delete
01:48:36 43.170740 132.076660 5 77.900001525879 0.69999998807907 142.15209960938 82 1 delete
01:48:33 43.170792 132.076641 4.5 79.199996948242 1.0799999237061 154.05578613281 82 1 delete
01:48:30 43.170857 132.076628 4.5 80.5 0.81999999284744 116.55395507812 82 1 delete
01:48:27 43.170898 132.076597 5 81.699996948242 0.69999998807907 129.56176757812 82 1 delete
01:48:24 43.170947 132.076549 6 82.699996948242 0.9899999499321 123.72802734375 82 1 delete
01:48:21 43.170970 132.076482 6.5 82.800003051758 0.75 124.00268554688 82 1 delete
01:48:18 43.170999 132.076426 5 83.199996948242 1.1899999380112 144.34936523438 82 1 delete
01:48:15 43.171045 132.076357 6 82.199996948242 1.0299999713898 124.51354980469 82 1 delete
01:48:09 43.171072 132.076220 5.5 79.900001525879 0.47999998927116 115.71899414062 82 1 delete
01:47:57 43.171129 132.076112 7 75.699996948242 0.89999997615814 105.21057128906 82 1 delete
01:47:48 43.171159 132.076011 6.5 75.400001525879 0.68000000715256 44.23095703125 82 1 delete
01:47:05 43.171071 132.075903 4 75.599998474121 0 0 82 1 delete
01:46:06 43.171097 132.075917 6.5 71.400001525879 0 0 82 1 delete
01:45:32 43.171089 132.075817 5 69.199996948242 0 0 82 1 delete
01:45:09 43.171068 132.075882 4.5 67 0 0 82 1 delete
01:44:01 43.171015 132.075875 5 66.199996948242 0.059999998658895 174.4189453125 82 1 delete
05:27:45 43.170756 132.075957 1.5 68.599998474121 0 0 35 1 delete
01:51:51 43.169567 132.079839 5 69.099998474121 0.97999995946884 32.18994140625 82 1 delete
01:51:48 43.169522 132.079797 5 67.699996948242 1.3899999856949 30.926513671875 82 1 delete
01:51:45 43.169473 132.079748 5.5 68.599998474121 1.2099999189377 30.0146484375 82 1 delete
01:51:42 43.169418 132.079719 6 70.300003051758 1.3899999856949 39.138793945312 82 1 delete
01:51:39 43.169355 132.079657 6 71.5 1.3199999332428 33.5302734375 82 1 delete
01:51:36 43.169292 132.079565 6 71 1.4800000190735 45.3515625 82 1 delete
01:49:57 43.169236 132.077651 5 82.800003051758 1.539999961853 156.90124511719 82 1 delete
01:49:54 43.169301 132.077603 5.5 82.5 0.93000000715256 141.45446777344 82 1 delete
01:49:51 43.169367 132.077580 5.5 80.699996948242 1.3600000143051 153.48999023438 82 1 delete
01:49:48 43.169448 132.077548 5.5 80.599998474121 1.9199999570847 162.75146484375 82 1 delete